createdAt,value
2023-07-02T00:01:53.156Z,19.05
2023-07-02T00:04:19.966Z,19.04
2023-07-02T00:06:47.171Z,19.10
2023-07-02T00:09:14.257Z,18.99
2023-07-02T00:11:42.901Z,19.00
2023-07-02T00:14:10.643Z,19.02
2023-07-02T00:16:39.859Z,18.66
2023-07-02T00:19:08.505Z,18.84
2023-07-02T00:21:35.257Z,18.66
2023-07-02T00:24:01.857Z,18.78
2023-07-02T00:26:28.776Z,18.84
2023-07-02T00:28:57.062Z,18.87
2023-07-02T00:31:24.721Z,18.88
2023-07-02T00:33:51.931Z,18.81
2023-07-02T00:36:19.880Z,18.75
2023-07-02T00:38:47.446Z,18.62
2023-07-02T00:41:14.441Z,18.61
2023-07-02T00:43:41.038Z,18.74
2023-07-02T00:46:07.842Z,18.65
2023-07-02T00:48:34.511Z,18.48
2023-07-02T00:51:01.670Z,18.34
2023-07-02T00:53:29.660Z,18.47
2023-07-02T00:55:56.138Z,18.50
2023-07-02T00:58:22.947Z,18.42
2023-07-02T01:00:49.841Z,18.37
2023-07-02T01:03:16.785Z,18.24
2023-07-02T01:05:43.690Z,18.17
2023-07-02T01:08:10.285Z,18.38
2023-07-02T01:10:38.281Z,18.38
2023-07-02T01:13:09.764Z,18.42
2023-07-02T01:15:37.778Z,18.46
2023-07-02T01:18:06.082Z,18.31
2023-07-02T01:20:35.805Z,18.17
2023-07-02T01:23:02.613Z,18.11
2023-07-02T01:25:29.376Z,18.19
2023-07-02T01:27:56.391Z,18.11
2023-07-02T01:30:23.208Z,18.12
2023-07-02T01:32:50.193Z,18.14
2023-07-02T01:35:17.002Z,18.15
2023-07-02T01:37:44.990Z,18.00
2023-07-02T01:40:11.950Z,17.99
2023-07-02T01:42:39.133Z,17.99
2023-07-02T01:45:06.662Z,18.02
2023-07-02T01:47:34.971Z,17.98
2023-07-02T01:50:03.088Z,17.71
2023-07-02T01:52:29.762Z,17.64
2023-07-02T01:54:57.681Z,17.45
2023-07-02T01:57:24.402Z,17.45
2023-07-02T01:59:51.057Z,17.28
2023-07-02T02:02:17.673Z,17.14
2023-07-02T02:04:44.340Z,17.31
2023-07-02T02:07:10.943Z,17.16
2023-07-02T02:09:37.852Z,17.25
2023-07-02T02:12:06.747Z,17.26
2023-07-02T02:14:33.375Z,17.33
2023-07-02T02:17:00.048Z,17.38
2023-07-02T02:19:26.655Z,17.48
2023-07-02T02:21:53.275Z,17.35
2023-07-02T02:24:20.345Z,17.53
2023-07-02T02:26:46.981Z,17.45
2023-07-02T02:29:15.284Z,17.28
2023-07-02T02:31:41.910Z,17.34
2023-07-02T02:34:08.751Z,17.41
2023-07-02T02:36:35.371Z,17.35
2023-07-02T02:39:02.110Z,17.46
2023-07-02T02:41:28.604Z,17.37
2023-07-02T02:43:55.234Z,17.31
2023-07-02T02:46:23.684Z,17.49
2023-07-02T02:48:50.305Z,17.56
2023-07-02T02:51:17.173Z,17.62
2023-07-02T02:53:43.944Z,17.49
2023-07-02T02:56:10.522Z,17.51
2023-07-02T02:58:37.166Z,17.55
2023-07-02T03:01:04.072Z,17.71
2023-07-02T03:03:32.212Z,17.74
2023-07-02T03:05:58.881Z,17.78
2023-07-02T03:08:25.506Z,17.77
2023-07-02T03:10:52.232Z,17.78
2023-07-02T03:13:18.793Z,17.72
2023-07-02T03:15:45.414Z,17.68
2023-07-02T03:18:12.050Z,17.75
2023-07-02T03:20:40.020Z,17.63
2023-07-02T03:23:06.612Z,17.70
2023-07-02T03:25:33.498Z,17.73
2023-07-02T03:28:00.092Z,17.67
2023-07-02T03:30:26.693Z,17.74
2023-07-02T03:32:53.457Z,17.60
2023-07-02T03:35:20.110Z,17.68
2023-07-02T03:37:48.064Z,17.83
2023-07-02T03:40:14.885Z,17.80
2023-07-02T03:42:42.832Z,17.68
2023-07-02T03:45:10.230Z,17.81
2023-07-02T03:47:36.859Z,17.72
2023-07-02T03:50:03.862Z,17.90
2023-07-02T03:52:30.616Z,17.92
2023-07-02T03:54:58.593Z,18.03
2023-07-02T03:57:25.361Z,18.00
2023-07-02T03:59:51.939Z,18.06
2023-07-02T04:02:18.773Z,18.04
2023-07-02T04:04:45.476Z,18.08
2023-07-02T04:07:12.243Z,18.19
2023-07-02T04:09:38.870Z,18.18
2023-07-02T04:12:08.272Z,18.24
2023-07-02T04:14:34.908Z,18.26
2023-07-02T04:17:03.047Z,18.22
2023-07-02T04:19:29.626Z,18.21
2023-07-02T04:21:56.396Z,18.30
2023-07-02T04:24:23.150Z,18.46
2023-07-02T04:27:14.700Z,18.61
2023-07-02T04:29:38.237Z,18.82
2023-07-02T04:32:05.697Z,18.42
2023-07-02T04:34:32.706Z,18.56
2023-07-02T04:36:59.285Z,18.60
2023-07-02T04:39:26.009Z,18.76
2023-07-02T04:41:52.621Z,18.72
2023-07-02T04:44:19.748Z,18.80
2023-07-02T04:46:48.399Z,19.04
2023-07-02T04:49:15.052Z,19.27
2023-07-02T04:51:41.657Z,19.41
2023-07-02T04:54:08.359Z,19.55
2023-07-02T04:56:34.967Z,20.39
2023-07-02T04:59:01.546Z,20.49
2023-07-02T05:01:29.242Z,20.46
2023-07-02T05:03:57.248Z,20.70
2023-07-02T05:06:23.865Z,21.93
2023-07-02T05:08:50.452Z,21.62
2023-07-02T05:11:17.184Z,22.07
2023-07-02T05:13:43.799Z,22.82
2023-07-02T05:16:10.337Z,23.10
2023-07-02T05:18:36.930Z,22.97
2023-07-02T05:21:04.981Z,22.75
2023-07-02T05:23:31.726Z,23.34
2023-07-02T05:25:58.284Z,23.60
2023-07-02T05:28:25.282Z,24.00
2023-07-02T05:30:51.915Z,24.14
2023-07-02T05:33:20.043Z,23.85
2023-07-02T05:35:46.685Z,24.11
2023-07-02T05:38:14.916Z,24.07
2023-07-02T05:40:41.673Z,23.86
2023-07-02T05:43:08.349Z,23.70
2023-07-02T05:45:34.987Z,24.17
2023-07-02T05:48:01.604Z,24.45
2023-07-02T05:50:28.432Z,23.56
2023-07-02T05:52:57.096Z,23.71
2023-07-02T05:55:25.254Z,23.54
2023-07-02T05:57:54.493Z,23.20
2023-07-02T06:00:21.357Z,22.76
2023-07-02T06:02:48.084Z,22.98
2023-07-02T06:05:14.890Z,23.15
2023-07-02T06:07:41.722Z,23.49
2023-07-02T06:10:08.811Z,23.70
2023-07-02T06:12:36.636Z,23.95
2023-07-02T06:15:03.899Z,24.71
2023-07-02T06:17:30.547Z,25.00
2023-07-02T06:19:57.356Z,25.12
2023-07-02T06:22:24.072Z,25.10
2023-07-02T06:24:50.740Z,25.18
2023-07-02T06:27:17.499Z,25.76
2023-07-02T06:29:45.412Z,26.39
2023-07-02T06:32:12.013Z,26.62
2023-07-02T06:34:38.607Z,27.02
2023-07-02T06:37:05.769Z,27.71
2023-07-02T06:39:32.519Z,27.65
2023-07-02T06:41:59.104Z,27.45
2023-07-02T06:44:25.817Z,28.45
2023-07-02T06:46:53.911Z,28.43
2023-07-02T06:49:20.607Z,28.60
2023-07-02T06:51:47.233Z,28.89
2023-07-02T06:54:13.804Z,28.80
2023-07-02T06:56:40.646Z,29.01
2023-07-02T06:59:07.239Z,28.84
2023-07-02T07:01:33.814Z,28.16
2023-07-02T07:04:02.052Z,28.03
2023-07-02T07:06:30.059Z,28.25
2023-07-02T07:08:56.684Z,28.49
2023-07-02T07:11:23.378Z,28.64
2023-07-02T07:13:50.038Z,28.41
2023-07-02T07:16:16.807Z,27.61
2023-07-02T07:18:44.965Z,28.02
2023-07-02T07:21:12.944Z,28.45
2023-07-02T07:23:41.041Z,28.39
2023-07-02T07:26:07.772Z,28.06
2023-07-02T07:28:34.380Z,27.37
2023-07-02T07:31:01.076Z,27.70
2023-07-02T07:33:27.719Z,27.26
2023-07-02T07:35:54.470Z,26.41
2023-07-02T07:38:22.595Z,26.67
2023-07-02T07:40:49.771Z,26.67
2023-07-02T07:43:16.593Z,26.85
2023-07-02T07:45:43.440Z,27.39
2023-07-02T07:48:10.208Z,27.52
2023-07-02T07:50:36.847Z,26.82
2023-07-02T07:53:03.538Z,27.26
2023-07-02T07:55:31.508Z,26.83
2023-07-02T07:57:58.771Z,26.88
2023-07-02T08:00:25.491Z,27.49
2023-07-02T08:02:52.138Z,27.61
2023-07-02T08:05:18.780Z,27.64
2023-07-02T08:07:45.387Z,27.65
2023-07-02T08:10:12.007Z,27.07
2023-07-02T08:12:40.167Z,26.39
2023-07-02T08:15:07.902Z,25.60
2023-07-02T08:17:34.737Z,24.84
2023-07-02T08:20:01.379Z,24.32
2023-07-02T08:22:28.484Z,24.11
2023-07-02T08:24:55.072Z,24.45
2023-07-02T08:27:21.825Z,24.87
2023-07-02T08:29:50.147Z,24.69
2023-07-02T08:32:16.980Z,25.06
2023-07-02T08:34:43.626Z,25.71
2023-07-02T08:37:10.385Z,26.23
2023-07-02T08:39:38.414Z,26.41
2023-07-02T08:42:05.740Z,26.55
2023-07-02T08:44:32.543Z,26.24
2023-07-02T08:47:00.983Z,25.73
2023-07-02T08:49:28.106Z,25.20
2023-07-02T08:51:55.075Z,24.87
2023-07-02T08:54:21.951Z,24.67
2023-07-02T08:56:48.527Z,24.87
2023-07-02T08:59:15.505Z,25.42
2023-07-02T09:01:48.230Z,25.50
2023-07-02T09:04:20.582Z,24.91
2023-07-02T09:06:47.586Z,24.85
2023-07-02T09:09:14.228Z,25.17
2023-07-02T09:11:51.298Z,25.41
2023-07-02T09:14:29.995Z,25.52
2023-07-02T09:17:07.792Z,25.26
2023-07-02T09:19:36.719Z,25.66
2023-07-02T09:22:04.187Z,26.48
2023-07-02T09:24:31.776Z,26.41
2023-07-02T09:27:00.248Z,26.45
2023-07-02T09:29:28.418Z,26.93
2023-07-02T09:34:30.303Z,26.03
2023-07-02T09:36:59.624Z,25.33
2023-07-02T09:39:28.224Z,24.79
2023-07-02T09:41:56.260Z,24.10
2023-07-02T09:44:23.547Z,24.15
2023-07-02T09:46:57.004Z,24.61
2023-07-02T09:49:24.539Z,25.06
2023-07-02T09:51:51.791Z,25.50
2023-07-02T09:54:20.051Z,25.89
2023-07-02T09:56:46.904Z,26.32
2023-07-02T09:59:13.535Z,26.66
2023-07-02T10:01:40.407Z,27.10
2023-07-02T10:04:13.931Z,26.88
2023-07-02T10:06:48.455Z,26.26
2023-07-02T10:09:15.282Z,25.43
2023-07-02T10:11:43.573Z,24.56
2023-07-02T10:14:10.291Z,23.90
2023-07-02T10:16:50.139Z,23.54
2023-07-02T10:19:16.919Z,23.20
2023-07-02T10:21:43.677Z,22.94
2023-07-02T10:24:12.378Z,23.13
2023-07-02T10:26:38.989Z,23.70
2023-07-02T10:29:07.478Z,24.31
2023-07-02T10:31:34.260Z,25.14
2023-07-02T10:34:00.933Z,25.54
2023-07-02T10:36:27.561Z,25.27
2023-07-02T10:38:54.399Z,24.96
2023-07-02T10:41:26.617Z,24.60
2023-07-02T10:43:53.452Z,24.18
2023-07-02T10:46:22.461Z,24.01
2023-07-02T10:48:53.362Z,23.67
2023-07-02T10:51:20.185Z,23.65
2023-07-02T10:53:48.054Z,23.59
2023-07-02T10:56:18.828Z,23.76
2023-07-02T10:58:45.490Z,23.46
2023-07-02T11:01:12.687Z,23.60
2023-07-02T11:03:41.172Z,23.75
2023-07-02T11:06:08.023Z,23.48
2023-07-02T11:08:37.553Z,23.93
2023-07-02T11:11:08.335Z,24.55
2023-07-02T11:13:35.088Z,25.32
2023-07-02T11:16:02.378Z,25.52
2023-07-02T11:18:32.137Z,25.72
2023-07-02T11:21:11.017Z,25.74
2023-07-02T11:23:37.769Z,25.94
2023-07-02T11:26:04.860Z,25.82
2023-07-02T11:28:33.009Z,25.00
2023-07-02T11:31:00.138Z,24.76
2023-07-02T11:33:36.840Z,24.63
2023-07-02T11:36:05.740Z,25.18
2023-07-02T11:38:35.576Z,25.73
2023-07-02T11:41:03.914Z,26.07
2023-07-02T11:43:30.525Z,25.92
2023-07-02T11:45:57.130Z,26.20
2023-07-02T11:48:23.874Z,25.58
2023-07-02T11:50:50.483Z,25.88
2023-07-02T11:53:18.453Z,26.42
2023-07-02T11:55:45.345Z,26.46
2023-07-02T11:58:11.953Z,26.45
2023-07-02T12:00:38.581Z,26.79
2023-07-02T12:03:05.399Z,27.01
2023-07-02T12:05:32.220Z,27.52
2023-07-02T12:07:58.779Z,27.75
2023-07-02T12:10:26.879Z,27.82
2023-07-02T12:12:53.472Z,27.41
2023-07-02T12:15:20.195Z,27.13
2023-07-02T12:17:47.090Z,27.21
2023-07-02T12:20:13.832Z,27.05
2023-07-02T12:22:40.641Z,26.92
2023-07-02T12:25:08.132Z,26.90
2023-07-02T12:27:36.111Z,26.86
2023-07-02T12:30:03.018Z,26.37
2023-07-02T12:32:29.695Z,26.30
2023-07-02T12:34:58.037Z,25.58
2023-07-02T12:37:24.868Z,25.18
2023-07-02T12:39:51.494Z,24.84
2023-07-02T12:42:18.560Z,24.66
2023-07-02T12:44:46.625Z,24.76
2023-07-02T12:47:13.219Z,24.95
2023-07-02T12:49:39.952Z,25.15
2023-07-02T12:52:06.850Z,25.02
2023-07-02T12:54:33.854Z,25.22
2023-07-02T12:57:00.603Z,25.16
2023-07-02T12:59:27.194Z,25.38
2023-07-02T13:01:55.236Z,25.14
2023-07-02T13:04:22.122Z,25.22
2023-07-02T13:06:48.988Z,25.28
2023-07-02T13:09:15.547Z,25.61
2023-07-02T13:11:42.322Z,26.02
2023-07-02T13:14:09.100Z,26.32
2023-07-02T13:16:35.750Z,26.84
2023-07-02T13:19:03.909Z,26.70
2023-07-02T13:21:30.648Z,26.65
2023-07-02T13:23:57.269Z,26.00
2023-07-02T13:26:24.005Z,25.89
2023-07-02T13:28:50.749Z,25.86
2023-07-02T13:31:17.487Z,26.50
2023-07-02T13:33:44.666Z,26.39
2023-07-02T13:36:12.850Z,26.23
2023-07-02T13:38:39.637Z,26.60
2023-07-02T13:41:06.676Z,27.02
2023-07-02T13:43:33.400Z,27.38
2023-07-02T13:46:00.351Z,26.80
2023-07-02T13:48:28.788Z,26.96
2023-07-02T13:50:55.794Z,27.67
2023-07-02T13:53:23.808Z,27.96
2023-07-02T13:55:51.204Z,28.10
2023-07-02T13:58:29.380Z,27.98
2023-07-02T14:00:58.182Z,27.16
2023-07-02T14:03:24.922Z,26.94
2023-07-02T14:05:52.202Z,26.70
2023-07-02T14:08:19.263Z,26.53
2023-07-02T14:10:45.878Z,26.60
2023-07-02T14:13:12.585Z,26.64
2023-07-02T14:15:39.196Z,26.59
2023-07-02T14:18:07.641Z,26.49
2023-07-02T14:20:34.321Z,26.54
2023-07-02T14:23:00.988Z,26.17
2023-07-02T14:25:40.676Z,25.86
2023-07-02T14:28:08.607Z,25.96
2023-07-02T14:30:35.205Z,25.83
2023-07-02T14:33:01.803Z,25.70
2023-07-02T14:35:30.150Z,26.13
2023-07-02T14:37:56.710Z,25.96
2023-07-02T14:40:23.344Z,26.16
2023-07-02T14:42:50.354Z,25.94
2023-07-02T14:45:16.944Z,25.75
2023-07-02T14:47:43.962Z,25.42
2023-07-02T14:50:11.028Z,25.94
2023-07-02T14:52:38.995Z,26.43
2023-07-02T14:55:06.388Z,26.30
2023-07-02T14:57:33.204Z,26.00
2023-07-02T14:59:59.855Z,25.86
2023-07-02T15:02:26.791Z,25.78
2023-07-02T15:04:53.689Z,25.78
2023-07-02T15:07:20.618Z,25.93
2023-07-02T15:09:48.829Z,26.12
2023-07-02T15:12:15.434Z,26.15
2023-07-02T15:14:42.377Z,25.66
2023-07-02T15:17:09.057Z,25.70
2023-07-02T15:19:35.710Z,25.60
2023-07-02T15:22:02.207Z,25.70
2023-07-02T15:24:28.832Z,25.96
2023-07-02T15:26:56.993Z,26.08
2023-07-02T15:29:23.876Z,25.64
2023-07-02T15:31:50.482Z,25.33
2023-07-02T15:34:17.080Z,25.51
2023-07-02T15:36:44.148Z,25.13
2023-07-02T15:39:10.802Z,25.32
2023-07-02T15:41:37.401Z,25.30
2023-07-02T15:44:06.173Z,25.12
2023-07-02T15:46:32.818Z,24.84
2023-07-02T15:49:00.166Z,24.82
2023-07-02T15:51:26.768Z,25.33
2023-07-02T15:53:53.429Z,25.44
2023-07-02T15:56:20.047Z,25.78
2023-07-02T15:58:46.687Z,25.86
2023-07-02T16:01:16.877Z,25.80
2023-07-02T16:03:44.058Z,25.72
2023-07-02T16:06:13.101Z,25.96
2023-07-02T16:08:39.818Z,26.17
2023-07-02T16:11:07.502Z,26.28
2023-07-02T16:13:34.172Z,25.63
2023-07-02T16:16:02.208Z,25.47
2023-07-02T16:18:30.298Z,25.18
2023-07-02T16:20:58.640Z,24.78
2023-07-02T16:23:25.339Z,25.15
2023-07-02T16:25:55.607Z,25.29
2023-07-02T16:28:22.827Z,25.11
2023-07-02T16:30:49.581Z,25.27
2023-07-02T16:33:17.864Z,25.83
2023-07-02T16:35:46.749Z,25.92
2023-07-02T16:38:13.952Z,25.83
2023-07-02T16:40:40.814Z,25.77
2023-07-02T16:43:07.431Z,25.51
2023-07-02T16:45:34.387Z,25.28
2023-07-02T16:48:01.012Z,25.14
2023-07-02T16:50:27.861Z,25.48
2023-07-02T16:52:55.824Z,25.26
2023-07-02T16:55:22.589Z,25.31
2023-07-02T16:57:49.172Z,25.20
2023-07-02T17:00:16.624Z,25.28
2023-07-02T17:02:43.688Z,25.09
2023-07-02T17:05:10.387Z,25.42
2023-07-02T17:07:37.454Z,25.48
2023-07-02T17:10:06.917Z,25.44
2023-07-02T17:12:33.503Z,25.29
2023-07-02T17:15:00.099Z,25.24
2023-07-02T17:17:27.901Z,25.32
2023-07-02T17:19:55.905Z,25.21
2023-07-02T17:22:24.779Z,25.11
2023-07-02T17:24:53.283Z,25.16
2023-07-02T17:27:23.271Z,25.38
2023-07-02T17:29:51.225Z,25.48
2023-07-02T17:32:17.850Z,25.46
2023-07-02T17:34:44.837Z,25.44
2023-07-02T17:37:12.551Z,25.26
2023-07-02T17:39:39.397Z,25.14
2023-07-02T17:42:06.962Z,25.04
2023-07-02T17:44:37.026Z,24.92
2023-07-02T17:47:06.123Z,24.83
2023-07-02T17:49:36.639Z,24.73
2023-07-02T17:52:03.871Z,24.72
2023-07-02T17:54:34.982Z,24.82
2023-07-02T17:57:04.047Z,25.06
2023-07-02T17:59:30.655Z,25.05
2023-07-02T18:01:58.665Z,24.72
2023-07-02T18:04:25.333Z,24.50
2023-07-02T18:06:51.977Z,24.40
2023-07-02T18:09:19.136Z,24.39
2023-07-02T18:11:45.851Z,24.43
2023-07-02T18:14:12.438Z,24.42
2023-07-02T18:16:39.236Z,24.14
2023-07-02T18:19:07.240Z,23.99
2023-07-02T18:21:33.928Z,24.04
2023-07-02T18:24:00.592Z,24.20
2023-07-02T18:26:27.458Z,24.22
2023-07-02T18:28:54.272Z,24.03
2023-07-02T18:31:21.597Z,23.78
2023-07-02T18:33:48.296Z,23.59
2023-07-02T18:36:18.726Z,23.52
2023-07-02T18:38:45.609Z,23.50
2023-07-02T18:41:12.794Z,23.53
2023-07-02T18:43:39.645Z,23.48
2023-07-02T18:46:07.092Z,23.46
2023-07-02T18:48:34.286Z,23.37
2023-07-02T18:51:05.063Z,23.30
2023-07-02T18:53:35.275Z,23.19
2023-07-02T18:56:03.423Z,23.09
2023-07-02T18:58:31.332Z,22.97
2023-07-02T19:00:58.162Z,22.84
2023-07-02T19:03:25.171Z,22.82
2023-07-02T19:05:52.537Z,22.80
2023-07-02T19:08:20.080Z,22.73
2023-07-02T19:11:01.791Z,22.66
2023-07-02T19:13:29.100Z,22.67
2023-07-02T19:15:56.410Z,22.55
2023-07-02T19:18:23.342Z,22.54
2023-07-02T19:20:50.670Z,22.55
2023-07-02T19:23:17.893Z,22.62
2023-07-02T19:25:45.391Z,22.47
2023-07-02T19:28:13.692Z,22.45
2023-07-02T19:30:40.436Z,22.28
2023-07-02T19:33:07.295Z,22.14
2023-07-02T19:35:34.062Z,21.89
2023-07-02T19:38:00.943Z,21.69
2023-07-02T19:40:27.650Z,21.51
2023-07-02T19:42:54.388Z,21.41
2023-07-02T19:45:22.488Z,21.22
2023-07-02T19:47:52.419Z,21.11
2023-07-02T19:50:19.305Z,20.90
2023-07-02T19:52:47.289Z,20.88
2023-07-02T19:55:13.985Z,20.88
2023-07-02T19:57:41.086Z,20.89
2023-07-02T20:00:08.911Z,20.96
2023-07-02T20:02:37.832Z,20.88
2023-07-02T20:05:05.726Z,20.98
2023-07-02T20:07:33.352Z,20.92
2023-07-02T20:10:00.201Z,20.89
2023-07-02T20:12:27.151Z,20.93
2023-07-02T20:14:53.949Z,20.90
2023-07-02T20:17:20.642Z,20.98
2023-07-02T20:19:49.032Z,20.92
2023-07-02T20:22:16.245Z,20.80
2023-07-02T20:24:43.206Z,20.73
2023-07-02T20:27:10.375Z,20.63
2023-07-02T20:29:37.306Z,20.55
2023-07-02T20:32:06.096Z,20.38
2023-07-02T20:34:36.851Z,20.40
2023-07-02T20:37:08.040Z,20.34
2023-07-02T20:39:35.314Z,20.31
2023-07-02T20:42:03.707Z,20.47
2023-07-02T20:44:33.144Z,20.45
2023-07-02T20:46:59.888Z,20.49
2023-07-02T20:49:26.883Z,20.39
2023-07-02T20:51:53.498Z,20.42
2023-07-02T20:54:21.477Z,20.37
2023-07-02T20:56:48.856Z,20.24
2023-07-02T20:59:15.713Z,20.26
2023-07-02T21:01:42.648Z,20.37
2023-07-02T21:04:10.080Z,20.26
2023-07-02T21:06:38.915Z,20.17
2023-07-02T21:09:08.567Z,20.02
2023-07-02T21:11:37.196Z,20.00
2023-07-02T21:14:05.635Z,19.92
2023-07-02T21:16:32.447Z,19.81
2023-07-02T21:18:59.712Z,19.76
2023-07-02T21:21:28.799Z,19.66
2023-07-02T21:23:55.574Z,19.59
2023-07-02T21:26:22.235Z,19.53
2023-07-02T21:28:50.588Z,19.62
2023-07-02T21:31:17.456Z,19.68
2023-07-02T21:33:45.062Z,19.69
2023-07-02T21:36:13.088Z,19.59
2023-07-02T21:38:40.362Z,19.52
2023-07-02T21:41:07.993Z,19.52
2023-07-02T21:43:35.009Z,19.41
2023-07-02T21:46:04.873Z,19.37
2023-07-02T21:48:31.994Z,19.35
2023-07-02T21:50:58.898Z,19.20
2023-07-02T21:53:25.554Z,19.19
2023-07-02T21:55:53.070Z,19.27
2023-07-02T21:58:20.044Z,19.38
2023-07-02T22:00:46.869Z,19.44
2023-07-02T22:03:18.403Z,19.25
2023-07-02T22:05:51.458Z,19.22
2023-07-02T22:08:18.437Z,19.21
2023-07-02T22:10:45.036Z,19.15
2023-07-02T22:13:14.695Z,19.12
2023-07-02T22:15:41.401Z,18.95
2023-07-02T22:18:08.037Z,18.93
2023-07-02T22:20:37.431Z,18.90
2023-07-02T22:23:05.161Z,18.98
2023-07-02T22:25:32.675Z,18.91
2023-07-02T22:27:59.472Z,18.97
2023-07-02T22:30:26.591Z,18.85
2023-07-02T22:32:53.331Z,18.68
2023-07-02T22:35:19.942Z,18.42
2023-07-02T22:37:48.503Z,18.32
2023-07-02T22:40:17.811Z,18.25
2023-07-02T22:42:46.037Z,18.13
2023-07-02T22:45:14.575Z,18.06
2023-07-02T22:47:42.036Z,17.97
2023-07-02T22:50:11.420Z,17.88
2023-07-02T22:52:38.101Z,17.54
2023-07-02T22:55:07.469Z,17.60
2023-07-02T22:57:35.127Z,17.53
2023-07-02T23:00:02.364Z,17.52
2023-07-02T23:02:29.992Z,17.41
2023-07-02T23:04:56.768Z,17.32
2023-07-02T23:07:23.688Z,17.33
2023-07-02T23:09:50.280Z,17.42
2023-07-02T23:12:18.199Z,17.36
2023-07-02T23:14:44.929Z,17.31
2023-07-02T23:17:11.599Z,17.28
2023-07-02T23:19:38.323Z,17.13
2023-07-02T23:22:05.413Z,17.13
2023-07-02T23:24:32.071Z,16.89
2023-07-02T23:26:58.936Z,16.84
2023-07-02T23:29:26.984Z,16.71
2023-07-02T23:31:53.604Z,16.80
2023-07-02T23:34:20.364Z,16.77
2023-07-02T23:36:47.107Z,16.65
2023-07-02T23:39:14.483Z,16.66
2023-07-02T23:41:41.651Z,16.68
2023-07-02T23:44:09.501Z,16.58
2023-07-02T23:46:37.521Z,16.38
2023-07-02T23:49:04.348Z,16.43
2023-07-02T23:51:31.033Z,16.39
2023-07-02T23:53:57.964Z,16.38
2023-07-02T23:56:24.629Z,16.57
2023-07-02T23:58:51.206Z,16.64
